createdAt,value
2023-08-28T00:03:57.608Z,97416.33
2023-08-28T00:07:52.710Z,97412.17
2023-08-28T00:11:19.133Z,97425.48
2023-08-28T00:14:56.213Z,97430.94
2023-08-28T00:18:36.151Z,97435.70
2023-08-28T00:22:11.179Z,97441.31
2023-08-28T00:25:48.795Z,97433.53
2023-08-28T00:29:26.477Z,97432.50
2023-08-28T00:33:05.028Z,97425.20
2023-08-28T00:36:41.978Z,97439.45
2023-08-28T00:40:20.930Z,97435.20
2023-08-28T00:43:57.208Z,97433.15
2023-08-28T00:47:36.681Z,97441.48
2023-08-28T00:51:12.695Z,97446.30
2023-08-28T00:55:09.778Z,97449.45
2023-08-28T00:58:35.019Z,97458.71
2023-08-28T01:02:13.264Z,97483.38
2023-08-28T01:06:32.350Z,97490.98
2023-08-28T01:10:19.463Z,97468.44
2023-08-28T01:14:25.739Z,97491.76
2023-08-28T01:17:59.985Z,97514.73
2023-08-28T01:21:29.385Z,97527.36
2023-08-28T01:25:12.029Z,97515.92
2023-08-28T01:28:44.815Z,97493.63
2023-08-28T01:32:22.444Z,97499.41
2023-08-28T01:36:31.584Z,97508.48
2023-08-28T01:40:04.475Z,97506.31
2023-08-28T01:43:40.043Z,97500.93
2023-08-28T01:47:33.060Z,97509.42
2023-08-28T01:50:58.452Z,97511.81
2023-08-28T01:54:36.081Z,97520.77
2023-08-28T01:58:34.752Z,97518.89
2023-08-28T02:02:00.951Z,97510.63
2023-08-28T02:05:39.707Z,97501.17
2023-08-28T02:09:35.100Z,97497.91
2023-08-28T02:13:01.207Z,97492.23
2023-08-28T02:16:57.634Z,97491.20
2023-08-28T02:20:46.139Z,97488.77
2023-08-28T02:24:11.708Z,97490.92
2023-08-28T02:27:49.331Z,97502.60
2023-08-28T02:31:46.026Z,97510.47
2023-08-28T02:35:15.113Z,97525.71
2023-08-28T02:38:49.377Z,97529.84
2023-08-28T02:42:26.878Z,97510.68
2023-08-28T02:46:04.688Z,97521.28
2023-08-28T02:49:42.052Z,97524.36
2023-08-28T02:53:19.763Z,97516.67
2023-08-28T02:56:57.311Z,97501.58
2023-08-28T03:00:39.366Z,97489.55
2023-08-28T03:04:12.707Z,97488.56
2023-08-28T03:07:50.637Z,97487.20
2023-08-28T03:11:28.108Z,97493.42
2023-08-28T03:15:06.794Z,97499.09
2023-08-28T03:18:46.749Z,97492.05
2023-08-28T03:22:21.331Z,97492.34
2023-08-28T03:25:58.819Z,97488.81
2023-08-28T03:29:36.671Z,97483.09
2023-08-28T03:33:14.130Z,97480.29
2023-08-28T03:36:53.845Z,97480.06
2023-08-28T03:40:31.034Z,97478.27
2023-08-28T03:44:07.536Z,97486.27
2023-08-28T03:47:49.973Z,97502.65
2023-08-28T03:51:23.297Z,97518.19
2023-08-28T03:55:19.379Z,97542.98
2023-08-28T03:58:44.948Z,97525.65
2023-08-28T04:02:22.986Z,97531.39
2023-08-28T04:06:00.523Z,97550.04
2023-08-28T04:09:56.964Z,97560.77
2023-08-28T04:13:22.327Z,97567.12
2023-08-28T04:16:59.693Z,97575.64
2023-08-28T04:20:37.634Z,97583.77
2023-08-28T04:24:34.282Z,97591.60
2023-08-28T04:28:00.762Z,97589.86
2023-08-28T04:31:38.408Z,97591.89
2023-08-28T04:35:16.115Z,97601.35
2023-08-28T04:38:53.737Z,97601.54
2023-08-28T04:42:50.422Z,97595.16
2023-08-28T04:46:15.743Z,97595.41
2023-08-28T04:49:53.746Z,97594.02
2023-08-28T04:53:31.196Z,97601.73
2023-08-28T04:57:09.301Z,97595.64
2023-08-28T05:01:05.353Z,97591.94
2023-08-28T05:04:32.865Z,97580.39
2023-08-28T05:08:28.823Z,97581.24
2023-08-28T05:12:12.857Z,97588.16
2023-08-28T05:15:38.157Z,97583.43
2023-08-28T05:19:15.892Z,97575.98
2023-08-28T05:22:53.548Z,97570.34
2023-08-28T05:26:31.375Z,97570.66
2023-08-28T05:30:09.424Z,97566.12
2023-08-28T05:33:46.734Z,97557.80
2023-08-28T05:37:46.307Z,97558.45
2023-08-28T05:41:11.355Z,97555.33
2023-08-28T05:44:49.039Z,97557.61
2023-08-28T05:48:27.106Z,97558.82
2023-08-28T05:52:05.486Z,97559.85
2023-08-28T05:56:01.178Z,97557.13
2023-08-28T05:59:26.558Z,97546.28
2023-08-28T06:03:25.263Z,97549.98
2023-08-28T06:07:09.525Z,97561.19
2023-08-28T06:10:39.985Z,97569.52
2023-08-28T06:14:13.518Z,97572.19
2023-08-28T06:18:09.763Z,97557.10
2023-08-28T06:21:54.164Z,97547.98
2023-08-28T06:25:19.944Z,97564.73
2023-08-28T06:29:17.539Z,97569.48
2023-08-28T06:33:05.204Z,97561.34
2023-08-28T06:36:32.531Z,97546.52
2023-08-28T06:40:10.830Z,97536.15
2023-08-28T06:44:06.506Z,97523.32
2023-08-28T06:47:51.171Z,97543.59
2023-08-28T06:51:19.772Z,97555.36
2023-08-28T06:54:55.192Z,97558.64
2023-08-28T06:58:32.796Z,97543.63
2023-08-28T07:02:10.156Z,97541.61
2023-08-28T07:05:47.445Z,97560.38
2023-08-28T07:09:45.101Z,97561.15
2023-08-28T07:13:10.973Z,97566.74
2023-08-28T07:16:48.946Z,97565.61
2023-08-28T07:20:26.741Z,97572.06
2023-08-28T07:24:04.680Z,97568.89
2023-08-28T07:27:42.010Z,97557.73
2023-08-28T07:31:20.120Z,97555.00
2023-08-28T07:34:57.172Z,97558.30
2023-08-28T07:38:35.081Z,97576.73
2023-08-28T07:42:12.485Z,97572.48
2023-08-28T07:45:50.206Z,97565.17
2023-08-28T07:49:28.490Z,97572.02
2023-08-28T07:53:06.014Z,97563.23
2023-08-28T07:56:43.148Z,97558.98
2023-08-28T08:00:42.007Z,97562.55
2023-08-28T08:04:10.613Z,97554.30
2023-08-28T08:07:48.929Z,97540.95
2023-08-28T08:11:26.867Z,97544.78
2023-08-28T08:15:04.295Z,97532.87
2023-08-28T08:19:01.331Z,97524.36
2023-08-28T08:22:29.872Z,97528.22
2023-08-28T08:26:08.442Z,97535.55
2023-08-28T08:29:46.500Z,97541.05
2023-08-28T08:33:44.691Z,97540.14
2023-08-28T08:37:10.809Z,97542.64
2023-08-28T08:40:52.957Z,97549.67
2023-08-28T08:44:45.122Z,97553.06
2023-08-28T08:48:34.901Z,97556.14
2023-08-28T08:52:06.021Z,97557.73
2023-08-28T08:55:46.816Z,97552.33
2023-08-28T08:59:19.540Z,97565.62
2023-08-28T09:02:59.638Z,97569.42
2023-08-28T09:06:52.253Z,97569.03
2023-08-28T09:10:20.367Z,97561.40
2023-08-28T09:13:58.019Z,97556.67
2023-08-28T09:17:41.233Z,97557.70
2023-08-28T09:21:14.844Z,97563.23
2023-08-28T09:24:55.242Z,97570.65
2023-08-28T09:28:29.043Z,97572.15
2023-08-28T09:32:29.252Z,97567.18
2023-08-28T09:35:59.470Z,97559.45
2023-08-28T09:39:33.518Z,97550.14
2023-08-28T09:43:29.976Z,97546.40
2023-08-28T09:46:57.630Z,97545.30
2023-08-28T09:50:35.239Z,97539.64
2023-08-28T09:54:12.299Z,97540.91
2023-08-28T09:58:11.507Z,97539.70
2023-08-28T10:02:09.109Z,97529.90
2023-08-28T10:05:45.302Z,97529.59
2023-08-28T10:09:53.172Z,97534.14
2023-08-28T10:13:23.940Z,97538.05
2023-08-28T10:16:58.548Z,97539.27
2023-08-28T10:20:35.673Z,97536.70
2023-08-28T10:24:15.089Z,97528.64
2023-08-28T10:28:10.662Z,97530.60
2023-08-28T10:31:59.467Z,97525.30
2023-08-28T10:35:27.802Z,97520.45
2023-08-28T10:39:09.666Z,97512.09
2023-08-28T10:42:42.886Z,97508.95
2023-08-28T10:46:22.484Z,97512.20
2023-08-28T10:49:57.860Z,97515.62
2023-08-28T10:53:35.022Z,97513.02
2023-08-28T10:57:47.665Z,97518.07
2023-08-28T11:01:16.770Z,97513.77
2023-08-28T11:05:14.598Z,97513.77
2023-08-28T11:09:30.777Z,97505.61
2023-08-28T11:13:24.561Z,97506.10
2023-08-28T11:17:21.167Z,97513.28
2023-08-28T11:21:01.734Z,97513.44
2023-08-28T11:24:52.957Z,97507.49
2023-08-28T11:28:31.979Z,97502.34
2023-08-28T11:31:59.741Z,97496.61
2023-08-28T11:36:03.457Z,97493.23
2023-08-28T11:39:29.353Z,97497.78
2023-08-28T11:43:26.406Z,97486.84
2023-08-28T11:46:52.383Z,97483.83
2023-08-28T11:50:29.756Z,97470.82
2023-08-28T11:54:27.081Z,97467.69
2023-08-28T11:57:52.910Z,97459.60
2023-08-28T12:01:30.907Z,97458.27
2023-08-28T12:05:11.201Z,97454.20
2023-08-28T12:08:47.571Z,97449.20
2023-08-28T12:12:32.267Z,97451.33
2023-08-28T12:16:11.163Z,97447.61
2023-08-28T12:19:41.611Z,97449.83
2023-08-28T12:23:18.477Z,97449.27
2023-08-28T12:26:57.608Z,97447.69
2023-08-28T12:30:36.406Z,97450.75
2023-08-28T12:34:31.240Z,97453.63
2023-08-28T12:38:02.560Z,97446.42
2023-08-28T12:41:36.467Z,97450.59
2023-08-28T12:45:12.919Z,97441.40
2023-08-28T12:49:11.548Z,97438.98
2023-08-28T12:52:36.587Z,97433.92
2023-08-28T12:56:35.813Z,97424.48
2023-08-28T13:00:01.769Z,97414.17
2023-08-28T13:03:39.938Z,97408.47
2023-08-28T13:07:18.636Z,97406.81
2023-08-28T13:11:15.257Z,97410.30
2023-08-28T13:15:00.954Z,97411.33
2023-08-28T13:18:27.393Z,97410.16
2023-08-28T13:22:05.086Z,97408.71
2023-08-28T13:25:42.731Z,97406.23
2023-08-28T13:29:20.241Z,97405.16
2023-08-28T13:32:59.853Z,97410.10
2023-08-28T13:36:43.502Z,97410.23
2023-08-28T13:40:13.490Z,97409.77
2023-08-28T13:43:50.963Z,97410.11
2023-08-28T13:47:47.865Z,97414.80
2023-08-28T13:51:15.072Z,97405.11
2023-08-28T13:54:53.138Z,97402.16
2023-08-28T13:58:32.651Z,97400.10
2023-08-28T14:02:08.597Z,97401.95
2023-08-28T14:06:08.735Z,97400.10
2023-08-28T14:09:55.799Z,97401.85
2023-08-28T14:13:40.299Z,97395.38
2023-08-28T14:17:07.452Z,97390.17
2023-08-28T14:20:44.188Z,97392.52
2023-08-28T14:24:40.314Z,97386.54
2023-08-28T14:28:20.855Z,97383.40
2023-08-28T14:31:49.076Z,97380.03
2023-08-28T14:35:26.221Z,97377.30
2023-08-28T14:39:22.930Z,97378.38
2023-08-28T14:42:53.472Z,97378.54
2023-08-28T14:46:26.683Z,97383.77
2023-08-28T14:50:04.669Z,97368.07
2023-08-28T14:53:42.173Z,97362.95
2023-08-28T14:57:19.913Z,97364.16
2023-08-28T15:00:57.697Z,97361.88
2023-08-28T15:04:54.179Z,97361.17
2023-08-28T15:08:20.570Z,97363.05
2023-08-28T15:12:18.422Z,97362.43
2023-08-28T15:16:07.181Z,97368.61
2023-08-28T15:19:55.729Z,97373.02
2023-08-28T15:23:40.120Z,97373.03
2023-08-28T15:27:05.707Z,97361.29
2023-08-28T15:31:01.926Z,97357.77
2023-08-28T15:34:27.359Z,97338.72
2023-08-28T15:38:05.581Z,97334.02
2023-08-28T15:41:43.219Z,97331.90
2023-08-28T15:45:20.676Z,97320.22
2023-08-28T15:49:18.339Z,97313.02
2023-08-28T15:52:44.406Z,97316.88
2023-08-28T15:56:24.462Z,97319.93
2023-08-28T15:59:59.507Z,97318.71
2023-08-28T16:03:37.476Z,97321.68
2023-08-28T16:07:15.127Z,97326.15
2023-08-28T16:10:52.515Z,97334.98
2023-08-28T16:14:30.455Z,97338.83
2023-08-28T16:18:26.604Z,97336.86
2023-08-28T16:22:12.131Z,97343.95
2023-08-28T16:25:57.122Z,97344.79
2023-08-28T16:29:41.278Z,97347.20
2023-08-28T16:33:25.338Z,97345.48
2023-08-28T16:36:50.970Z,97344.14
2023-08-28T16:40:29.695Z,97345.95
2023-08-28T16:44:07.189Z,97339.71
2023-08-28T16:47:46.177Z,97341.85
2023-08-28T16:51:42.266Z,97334.09
2023-08-28T16:55:08.509Z,97327.73
2023-08-28T16:58:45.625Z,97328.19
2023-08-28T17:02:23.241Z,97321.66
2023-08-28T17:06:21.891Z,97326.23
2023-08-28T17:09:48.263Z,97326.67
2023-08-28T17:13:26.099Z,97326.63
2023-08-28T17:17:04.461Z,97328.31
2023-08-28T17:21:00.237Z,97319.39
2023-08-28T17:24:25.608Z,97323.17
2023-08-28T17:28:03.667Z,97332.72
2023-08-28T17:32:00.113Z,97328.38
2023-08-28T17:35:25.534Z,97318.46
2023-08-28T17:39:25.924Z,97326.42
2023-08-28T17:42:51.374Z,97330.31
2023-08-28T17:46:28.904Z,97326.65
2023-08-28T17:50:25.842Z,97335.94
2023-08-28T17:54:10.581Z,97336.69
2023-08-28T17:57:35.992Z,97343.94
2023-08-28T18:01:13.533Z,97335.46
2023-08-28T18:05:11.068Z,97328.58
2023-08-28T18:08:37.038Z,97325.29
2023-08-28T18:12:14.722Z,97330.80
2023-08-28T18:16:16.648Z,97336.92
2023-08-28T18:19:43.708Z,97330.55
2023-08-28T18:23:20.912Z,97329.05
2023-08-28T18:26:58.415Z,97323.67
2023-08-28T18:30:54.829Z,97325.13
2023-08-28T18:34:40.764Z,97316.22
2023-08-28T18:38:08.438Z,97308.16
2023-08-28T18:42:09.426Z,97307.15
2023-08-28T18:45:36.129Z,97299.29
2023-08-28T18:49:13.474Z,97283.52
2023-08-28T18:52:51.334Z,97272.97
2023-08-28T18:56:28.878Z,97264.40
2023-08-28T19:00:06.988Z,97256.89
2023-08-28T19:03:44.220Z,97256.40
2023-08-28T19:07:21.731Z,97258.23
2023-08-28T19:11:01.329Z,97254.64
2023-08-28T19:14:36.913Z,97257.64
2023-08-28T19:18:17.233Z,97255.01
2023-08-28T19:22:11.485Z,97250.85
2023-08-28T19:25:40.878Z,97245.59
2023-08-28T19:29:33.146Z,97227.27
2023-08-28T19:33:20.576Z,97201.20
2023-08-28T19:37:06.445Z,97196.63
2023-08-28T19:40:50.964Z,97193.48
2023-08-28T19:44:35.236Z,97184.36
2023-08-28T19:48:00.861Z,97177.31
2023-08-28T19:51:57.964Z,97165.21
2023-08-28T19:55:23.466Z,97151.01
2023-08-28T19:59:20.254Z,97143.09
2023-08-28T20:03:05.920Z,97140.46
2023-08-28T20:06:52.532Z,97138.08
2023-08-28T20:10:41.510Z,97134.94
2023-08-28T20:14:27.817Z,97128.31
2023-08-28T20:17:53.889Z,97128.39
2023-08-28T20:21:31.612Z,97131.98
2023-08-28T20:25:09.217Z,97126.55
2023-08-28T20:28:46.567Z,97128.77
2023-08-28T20:32:43.340Z,97131.92
2023-08-28T20:36:08.679Z,97125.73
2023-08-28T20:40:06.535Z,97116.39
2023-08-28T20:43:32.079Z,97107.70
2023-08-28T20:47:36.262Z,97109.90
2023-08-28T20:51:18.618Z,97103.27
2023-08-28T20:54:43.674Z,97096.29
2023-08-28T20:58:22.806Z,97090.21
2023-08-28T21:01:59.290Z,97081.90
2023-08-28T21:05:38.719Z,97066.81
2023-08-28T21:09:33.553Z,97054.95
2023-08-28T21:12:58.808Z,97045.16
2023-08-28T21:16:56.685Z,97049.25
2023-08-28T21:20:43.198Z,97057.67
2023-08-28T21:24:11.699Z,97061.09
2023-08-28T21:27:49.424Z,97068.84
2023-08-28T21:31:47.786Z,97067.12
2023-08-28T21:35:35.873Z,97064.69
2023-08-28T21:39:02.017Z,97068.77
2023-08-28T21:42:40.276Z,97061.63
2023-08-28T21:46:37.690Z,97065.98
2023-08-28T21:50:22.014Z,97065.33
2023-08-28T21:54:08.376Z,97071.85
2023-08-28T21:57:56.144Z,97073.20
2023-08-28T22:01:42.673Z,97074.23
2023-08-28T22:05:47.037Z,97080.23
2023-08-28T22:09:31.886Z,97066.86
2023-08-28T22:13:29.667Z,97058.01
2023-08-28T22:16:55.550Z,97051.39
2023-08-28T22:20:53.032Z,97048.00
2023-08-28T22:24:19.582Z,97045.61
2023-08-28T22:28:15.872Z,97035.04
2023-08-28T22:32:00.239Z,97023.07
2023-08-28T22:35:25.524Z,97010.36
2023-08-28T22:39:03.597Z,97000.55
2023-08-28T22:42:59.990Z,96993.77
2023-08-28T22:46:44.271Z,96986.36
2023-08-28T22:50:09.960Z,96982.73
2023-08-28T22:53:48.020Z,96979.89
2023-08-28T22:57:25.483Z,96979.63
2023-08-28T23:01:23.327Z,96974.31
2023-08-28T23:05:10.936Z,96974.01
2023-08-28T23:08:37.067Z,96968.86
2023-08-28T23:12:34.117Z,96961.75
2023-08-28T23:15:59.622Z,96958.95
2023-08-28T23:19:56.227Z,96963.06
2023-08-28T23:23:22.565Z,96961.58
2023-08-28T23:27:03.086Z,96962.92
2023-08-28T23:30:37.202Z,96965.81
2023-08-28T23:34:14.937Z,96970.89
2023-08-28T23:37:52.704Z,96976.26
2023-08-28T23:41:30.166Z,96988.52
2023-08-28T23:45:08.151Z,96997.90
2023-08-28T23:48:45.368Z,96990.66
2023-08-28T23:52:25.842Z,96983.05
2023-08-28T23:56:19.735Z,96959.80
2023-08-28T23:59:46.133Z,96947.81
